McClure, Ohio
Current Conditions -  °F | °C
As of 6:52 AM on Thursday 29 Jan 2015 (Local Time) from KTOL Reporting Station
Overcast Overcast  
Wind Chill: 24°   Ceiling: 9000
Heat Index: 29°   Visibility: 10mi
Dew Point: 23°   Wind: 5mph
Humidity: 78%   Direction: NA
Pressure: 29.81"   Gusts: NA
Location:  41.37°N, 83.94°W
Report Text: KTOL 291152Z VRB04KT 10SM FEW055 OVC090 M02/M05 A2981 RMK AO2 UPE32 SLP103 P0000 60000 T10171050 11017 21039 56046
Loading
Personal Weather Stations






























Interactive Weather Map New forecast layout! Learn more

10-Day Weather Forecast

Advertisements
Track Severe Weather on mobile